sensor_id;sensor_type;location;lat;lon;timestamp;temperature;humidity
5304;DHT22;2674;49.722;10.892;2022-09-09T00:01:10;13.10;99.90
5304;DHT22;2674;49.722;10.892;2022-09-09T00:03:57;13.10;99.90
5304;DHT22;2674;49.722;10.892;2022-09-09T00:06:29;13.00;99.90
5304;DHT22;2674;49.722;10.892;2022-09-09T00:09:04;13.00;99.90
5304;DHT22;2674;49.722;10.892;2022-09-09T00:11:52;13.00;99.90
5304;DHT22;2674;49.722;10.892;2022-09-09T00:14:45;13.00;99.90
5304;DHT22;2674;49.722;10.892;2022-09-09T00:17:26;13.00;99.90
5304;DHT22;2674;49.722;10.892;2022-09-09T00:20:25;13.10;99.90
5304;DHT22;2674;49.722;10.892;2022-09-09T00:25:46;13.10;99.90
5304;DHT22;2674;49.722;10.892;2022-09-09T00:28:20;13.10;99.90
5304;DHT22;2674;49.722;10.892;2022-09-09T00:30:46;13.20;99.90
5304;DHT22;2674;49.722;10.892;2022-09-09T00:33:18;13.10;99.90
5304;DHT22;2674;49.722;10.892;2022-09-09T00:35:52;13.20;99.90
5304;DHT22;2674;49.722;10.892;2022-09-09T00:38:33;13.10;99.90
5304;DHT22;2674;49.722;10.892;2022-09-09T00:44:03;13.20;99.90
5304;DHT22;2674;49.722;10.892;2022-09-09T00:52:17;13.20;99.90
5304;DHT22;2674;49.722;10.892;2022-09-09T00:57:44;13.20;99.90
5304;DHT22;2674;49.722;10.892;2022-09-09T01:00:25;13.20;99.90
5304;DHT22;2674;49.722;10.892;2022-09-09T01:05:33;13.20;99.90
5304;DHT22;2674;49.722;10.892;2022-09-09T01:08:05;13.20;99.90
5304;DHT22;2674;49.722;10.892;2022-09-09T01:10:52;13.20;99.90
5304;DHT22;2674;49.722;10.892;2022-09-09T01:13:30;13.30;99.90
5304;DHT22;2674;49.722;10.892;2022-09-09T01:16:01;13.30;99.90
5304;DHT22;2674;49.722;10.892;2022-09-09T01:18:31;13.30;99.90
5304;DHT22;2674;49.722;10.892;2022-09-09T01:21:13;13.20;99.90
5304;DHT22;2674;49.722;10.892;2022-09-09T01:26:37;13.20;99.90
5304;DHT22;2674;49.722;10.892;2022-09-09T01:29:08;13.10;99.90
5304;DHT22;2674;49.722;10.892;2022-09-09T01:31:40;13.10;99.90
5304;DHT22;2674;49.722;10.892;2022-09-09T01:34:14;13.10;99.90
5304;DHT22;2674;49.722;10.892;2022-09-09T01:39:17;13.10;99.90
5304;DHT22;2674;49.722;10.892;2022-09-09T01:41:43;13.10;99.90
5304;DHT22;2674;49.722;10.892;2022-09-09T01:44:10;13.10;99.90
5304;DHT22;2674;49.722;10.892;2022-09-09T01:46:36;13.10;99.90
5304;DHT22;2674;49.722;10.892;2022-09-09T01:49:03;13.10;99.90
5304;DHT22;2674;49.722;10.892;2022-09-09T01:51:30;13.10;99.90
5304;DHT22;2674;49.722;10.892;2022-09-09T01:53:56;13.10;99.90
5304;DHT22;2674;49.722;10.892;2022-09-09T01:59:48;13.10;99.90
5304;DHT22;2674;49.722;10.892;2022-09-09T02:02:39;13.10;99.90
5304;DHT22;2674;49.722;10.892;2022-09-09T02:11:16;13.20;99.90
5304;DHT22;2674;49.722;10.892;2022-09-09T02:13:45;13.20;99.90
5304;DHT22;2674;49.722;10.892;2022-09-09T02:16:23;13.30;99.90
5304;DHT22;2674;49.722;10.892;2022-09-09T02:21:17;13.40;99.90
5304;DHT22;2674;49.722;10.892;2022-09-09T02:23:46;13.40;99.90
5304;DHT22;2674;49.722;10.892;2022-09-09T02:26:14;13.40;99.90
5304;DHT22;2674;49.722;10.892;2022-09-09T02:28:47;13.50;99.90
5304;DHT22;2674;49.722;10.892;2022-09-09T02:31:16;13.50;99.90
5304;DHT22;2674;49.722;10.892;2022-09-09T02:33:47;13.50;99.90
5304;DHT22;2674;49.722;10.892;2022-09-09T02:36:15;13.50;99.90
5304;DHT22;2674;49.722;10.892;2022-09-09T02:38:46;13.50;99.90
5304;DHT22;2674;49.722;10.892;2022-09-09T02:41:27;13.50;99.90
5304;DHT22;2674;49.722;10.892;2022-09-09T02:43:53;13.50;99.90
5304;DHT22;2674;49.722;10.892;2022-09-09T02:50:15;13.60;99.90
5304;DHT22;2674;49.722;10.892;2022-09-09T02:58:20;13.70;99.90
5304;DHT22;2674;49.722;10.892;2022-09-09T03:00:47;13.70;99.90
5304;DHT22;2674;49.722;10.892;2022-09-09T03:03:14;13.70;99.90
5304;DHT22;2674;49.722;10.892;2022-09-09T03:05:43;13.70;99.90
5304;DHT22;2674;49.722;10.892;2022-09-09T03:08:09;13.70;99.90
5304;DHT22;2674;49.722;10.892;2022-09-09T03:10:35;13.70;99.90
5304;DHT22;2674;49.722;10.892;2022-09-09T03:13:01;13.80;99.90
5304;DHT22;2674;49.722;10.892;2022-09-09T03:15:27;13.80;99.90
5304;DHT22;2674;49.722;10.892;2022-09-09T03:17:56;13.80;99.90
5304;DHT22;2674;49.722;10.892;2022-09-09T03:20:24;13.80;99.90
5304;DHT22;2674;49.722;10.892;2022-09-09T03:22:51;13.80;99.90
5304;DHT22;2674;49.722;10.892;2022-09-09T03:25:17;13.80;99.90
5304;DHT22;2674;49.722;10.892;2022-09-09T03:27:43;13.80;99.90
5304;DHT22;2674;49.722;10.892;2022-09-09T03:30:10;13.80;99.90
5304;DHT22;2674;49.722;10.892;2022-09-09T03:32:36;13.90;99.90
5304;DHT22;2674;49.722;10.892;2022-09-09T03:35:02;13.90;99.90
5304;DHT22;2674;49.722;10.892;2022-09-09T03:37:28;13.90;99.90
5304;DHT22;2674;49.722;10.892;2022-09-09T03:39:54;13.90;99.90
5304;DHT22;2674;49.722;10.892;2022-09-09T03:42:21;13.90;99.90
5304;DHT22;2674;49.722;10.892;2022-09-09T03:44:47;13.90;99.90
5304;DHT22;2674;49.722;10.892;2022-09-09T03:47:20;13.90;99.90
5304;DHT22;2674;49.722;10.892;2022-09-09T03:49:47;13.90;99.90
5304;DHT22;2674;49.722;10.892;2022-09-09T03:52:14;13.90;99.90
5304;DHT22;2674;49.722;10.892;2022-09-09T03:54:41;13.90;99.90
5304;DHT22;2674;49.722;10.892;2022-09-09T03:57:11;13.90;99.90
5304;DHT22;2674;49.722;10.892;2022-09-09T03:59:37;13.80;99.90
5304;DHT22;2674;49.722;10.892;2022-09-09T04:02:04;13.80;99.90
5304;DHT22;2674;49.722;10.892;2022-09-09T04:04:29;13.90;99.90
5304;DHT22;2674;49.722;10.892;2022-09-09T04:06:55;13.80;99.90
5304;DHT22;2674;49.722;10.892;2022-09-09T04:09:21;13.80;99.90
5304;DHT22;2674;49.722;10.892;2022-09-09T04:11:47;13.80;99.90
5304;DHT22;2674;49.722;10.892;2022-09-09T04:14:15;13.90;99.90
5304;DHT22;2674;49.722;10.892;2022-09-09T04:16:40;13.80;99.90
5304;DHT22;2674;49.722;10.892;2022-09-09T04:19:11;13.80;99.90
5304;DHT22;2674;49.722;10.892;2022-09-09T04:21:42;13.80;99.90
5304;DHT22;2674;49.722;10.892;2022-09-09T04:24:09;13.80;99.90
5304;DHT22;2674;49.722;10.892;2022-09-09T04:26:35;13.80;99.90
5304;DHT22;2674;49.722;10.892;2022-09-09T04:29:03;13.70;99.90
5304;DHT22;2674;49.722;10.892;2022-09-09T04:31:29;13.70;99.90
5304;DHT22;2674;49.722;10.892;2022-09-09T04:33:55;13.70;99.90
5304;DHT22;2674;49.722;10.892;2022-09-09T04:36:21;13.80;99.90
5304;DHT22;2674;49.722;10.892;2022-09-09T04:38:47;13.80;99.90
5304;DHT22;2674;49.722;10.892;2022-09-09T04:41:16;13.80;99.90
5304;DHT22;2674;49.722;10.892;2022-09-09T04:43:42;13.80;99.90
5304;DHT22;2674;49.722;10.892;2022-09-09T04:46:08;13.80;99.90
5304;DHT22;2674;49.722;10.892;2022-09-09T04:48:34;13.80;99.90
5304;DHT22;2674;49.722;10.892;2022-09-09T04:51:10;13.80;99.90
5304;DHT22;2674;49.722;10.892;2022-09-09T04:53:37;13.80;99.90
5304;DHT22;2674;49.722;10.892;2022-09-09T04:56:13;13.80;99.90
5304;DHT22;2674;49.722;10.892;2022-09-09T04:58:40;13.80;99.90
5304;DHT22;2674;49.722;10.892;2022-09-09T05:03:39;13.80;99.90
5304;DHT22;2674;49.722;10.892;2022-09-09T05:06:10;13.80;99.90
5304;DHT22;2674;49.722;10.892;2022-09-09T05:08:37;13.80;99.90
5304;DHT22;2674;49.722;10.892;2022-09-09T05:11:18;13.80;99.90
5304;DHT22;2674;49.722;10.892;2022-09-09T05:13:45;13.90;99.90
5304;DHT22;2674;49.722;10.892;2022-09-09T05:16:11;13.90;99.90
5304;DHT22;2674;49.722;10.892;2022-09-09T05:18:39;13.90;99.90
5304;DHT22;2674;49.722;10.892;2022-09-09T05:21:05;14.00;99.90
5304;DHT22;2674;49.722;10.892;2022-09-09T05:23:35;14.00;99.90
5304;DHT22;2674;49.722;10.892;2022-09-09T05:26:03;14.10;99.90
5304;DHT22;2674;49.722;10.892;2022-09-09T05:28:30;14.10;99.90
5304;DHT22;2674;49.722;10.892;2022-09-09T05:30:57;14.10;99.90
5304;DHT22;2674;49.722;10.892;2022-09-09T05:33:24;14.10;99.90
5304;DHT22;2674;49.722;10.892;2022-09-09T05:35:58;14.20;99.90
5304;DHT22;2674;49.722;10.892;2022-09-09T05:38:24;14.20;99.90
5304;DHT22;2674;49.722;10.892;2022-09-09T05:40:51;14.20;99.90
5304;DHT22;2674;49.722;10.892;2022-09-09T05:43:19;14.30;99.90
5304;DHT22;2674;49.722;10.892;2022-09-09T05:45:46;14.40;99.90
5304;DHT22;2674;49.722;10.892;2022-09-09T05:48:16;14.40;99.90
5304;DHT22;2674;49.722;10.892;2022-09-09T05:50:42;14.50;99.90
5304;DHT22;2674;49.722;10.892;2022-09-09T05:53:10;14.50;99.90
5304;DHT22;2674;49.722;10.892;2022-09-09T05:55:36;14.50;99.90
5304;DHT22;2674;49.722;10.892;2022-09-09T05:58:02;14.60;99.90
5304;DHT22;2674;49.722;10.892;2022-09-09T06:00:28;14.60;99.90
5304;DHT22;2674;49.722;10.892;2022-09-09T06:02:57;14.60;99.90
5304;DHT22;2674;49.722;10.892;2022-09-09T06:05:22;14.60;99.90
5304;DHT22;2674;49.722;10.892;2022-09-09T06:07:52;14.70;99.90
5304;DHT22;2674;49.722;10.892;2022-09-09T06:10:18;14.70;99.90
5304;DHT22;2674;49.722;10.892;2022-09-09T06:12:44;14.70;99.90
5304;DHT22;2674;49.722;10.892;2022-09-09T06:15:10;14.70;99.90
5304;DHT22;2674;49.722;10.892;2022-09-09T06:17:36;14.80;99.90
5304;DHT22;2674;49.722;10.892;2022-09-09T06:20:02;14.80;99.90
5304;DHT22;2674;49.722;10.892;2022-09-09T06:22:29;14.90;99.90
5304;DHT22;2674;49.722;10.892;2022-09-09T06:24:55;15.00;99.90
5304;DHT22;2674;49.722;10.892;2022-09-09T06:27:21;15.10;99.90
5304;DHT22;2674;49.722;10.892;2022-09-09T06:29:47;15.20;99.90
5304;DHT22;2674;49.722;10.892;2022-09-09T06:32:13;15.30;99.90
5304;DHT22;2674;49.722;10.892;2022-09-09T06:34:39;15.40;99.90
5304;DHT22;2674;49.722;10.892;2022-09-09T06:37:05;15.50;99.90
5304;DHT22;2674;49.722;10.892;2022-09-09T06:39:32;15.60;99.90
5304;DHT22;2674;49.722;10.892;2022-09-09T06:41:58;15.60;99.90
5304;DHT22;2674;49.722;10.892;2022-09-09T06:44:24;15.70;99.90
5304;DHT22;2674;49.722;10.892;2022-09-09T06:46:52;15.80;99.90
5304;DHT22;2674;49.722;10.892;2022-09-09T06:49:18;15.80;99.90
5304;DHT22;2674;49.722;10.892;2022-09-09T06:51:44;15.90;99.90
5304;DHT22;2674;49.722;10.892;2022-09-09T06:54:11;16.00;99.90
5304;DHT22;2674;49.722;10.892;2022-09-09T06:56:41;16.10;99.90
5304;DHT22;2674;49.722;10.892;2022-09-09T06:59:09;16.30;99.90
5304;DHT22;2674;49.722;10.892;2022-09-09T07:01:37;16.40;99.90
5304;DHT22;2674;49.722;10.892;2022-09-09T07:04:04;16.50;99.90
5304;DHT22;2674;49.722;10.892;2022-09-09T07:06:35;16.70;99.90
5304;DHT22;2674;49.722;10.892;2022-09-09T07:09:04;16.80;99.90
5304;DHT22;2674;49.722;10.892;2022-09-09T07:11:36;16.90;99.90
5304;DHT22;2674;49.722;10.892;2022-09-09T07:14:03;16.90;99.90
5304;DHT22;2674;49.722;10.892;2022-09-09T07:16:29;17.00;99.90
5304;DHT22;2674;49.722;10.892;2022-09-09T07:18:56;17.10;99.90
5304;DHT22;2674;49.722;10.892;2022-09-09T07:21:27;17.20;99.90
5304;DHT22;2674;49.722;10.892;2022-09-09T07:23:54;17.40;99.90
5304;DHT22;2674;49.722;10.892;2022-09-09T07:26:22;17.40;99.90
5304;DHT22;2674;49.722;10.892;2022-09-09T07:28:49;17.50;99.90
5304;DHT22;2674;49.722;10.892;2022-09-09T07:31:20;17.70;99.90
5304;DHT22;2674;49.722;10.892;2022-09-09T07:33:47;17.80;99.90
5304;DHT22;2674;49.722;10.892;2022-09-09T07:36:20;17.90;99.90
5304;DHT22;2674;49.722;10.892;2022-09-09T07:38:55;17.90;99.90
5304;DHT22;2674;49.722;10.892;2022-09-09T07:41:30;18.00;99.90
5304;DHT22;2674;49.722;10.892;2022-09-09T07:43:57;18.00;99.90
5304;DHT22;2674;49.722;10.892;2022-09-09T07:46:25;18.10;99.90
5304;DHT22;2674;49.722;10.892;2022-09-09T07:48:53;18.20;99.90
5304;DHT22;2674;49.722;10.892;2022-09-09T07:51:23;18.40;99.90
5304;DHT22;2674;49.722;10.892;2022-09-09T07:53:55;18.50;99.90
5304;DHT22;2674;49.722;10.892;2022-09-09T07:56:26;18.70;99.90
5304;DHT22;2674;49.722;10.892;2022-09-09T07:58:54;18.90;99.90
5304;DHT22;2674;49.722;10.892;2022-09-09T08:01:29;18.90;99.90
5304;DHT22;2674;49.722;10.892;2022-09-09T08:04:02;19.00;99.90
5304;DHT22;2674;49.722;10.892;2022-09-09T08:06:49;19.00;99.90
5304;DHT22;2674;49.722;10.892;2022-09-09T08:09:15;19.20;99.90
5304;DHT22;2674;49.722;10.892;2022-09-09T08:11:42;19.20;99.90
5304;DHT22;2674;49.722;10.892;2022-09-09T08:14:09;19.30;99.90
5304;DHT22;2674;49.722;10.892;2022-09-09T08:16:39;19.50;99.90
5304;DHT22;2674;49.722;10.892;2022-09-09T08:19:06;19.60;99.90
5304;DHT22;2674;49.722;10.892;2022-09-09T08:21:35;19.80;99.90
5304;DHT22;2674;49.722;10.892;2022-09-09T08:24:02;19.90;99.90
5304;DHT22;2674;49.722;10.892;2022-09-09T08:26:31;20.10;99.90
5304;DHT22;2674;49.722;10.892;2022-09-09T08:28:59;20.20;99.90
5304;DHT22;2674;49.722;10.892;2022-09-09T08:31:36;20.30;99.90
5304;DHT22;2674;49.722;10.892;2022-09-09T08:34:03;20.50;99.90
5304;DHT22;2674;49.722;10.892;2022-09-09T08:36:32;20.50;99.90
5304;DHT22;2674;49.722;10.892;2022-09-09T08:39:04;20.50;99.90
5304;DHT22;2674;49.722;10.892;2022-09-09T08:47:24;20.40;99.90
5304;DHT22;2674;49.722;10.892;2022-09-09T08:50:30;20.50;99.90
5304;DHT22;2674;49.722;10.892;2022-09-09T08:53:19;20.80;99.90
5304;DHT22;2674;49.722;10.892;2022-09-09T08:55:47;20.90;99.90
5304;DHT22;2674;49.722;10.892;2022-09-09T08:58:21;21.10;99.90
5304;DHT22;2674;49.722;10.892;2022-09-09T09:00:51;21.10;99.90
5304;DHT22;2674;49.722;10.892;2022-09-09T09:03:47;21.10;99.90
5304;DHT22;2674;49.722;10.892;2022-09-09T09:06:59;21.10;99.90
5304;DHT22;2674;49.722;10.892;2022-09-09T09:09:40;21.10;99.90
5304;DHT22;2674;49.722;10.892;2022-09-09T09:12:22;21.10;99.90
5304;DHT22;2674;49.722;10.892;2022-09-09T09:14:49;20.90;99.90
5304;DHT22;2674;49.722;10.892;2022-09-09T09:17:20;20.80;99.90
5304;DHT22;2674;49.722;10.892;2022-09-09T09:19:48;20.80;99.90
5304;DHT22;2674;49.722;10.892;2022-09-09T09:22:22;20.80;99.90
5304;DHT22;2674;49.722;10.892;2022-09-09T09:30:30;21.20;99.90
5304;DHT22;2674;49.722;10.892;2022-09-09T09:36:03;21.60;99.90
5304;DHT22;2674;49.722;10.892;2022-09-09T09:38:34;21.60;99.90
5304;DHT22;2674;49.722;10.892;2022-09-09T09:41:00;21.70;99.90
5304;DHT22;2674;49.722;10.892;2022-09-09T09:43:34;21.70;99.90
5304;DHT22;2674;49.722;10.892;2022-09-09T09:46:03;21.80;99.90
5304;DHT22;2674;49.722;10.892;2022-09-09T09:48:30;21.90;99.90
5304;DHT22;2674;49.722;10.892;2022-09-09T09:51:10;21.90;99.90
5304;DHT22;2674;49.722;10.892;2022-09-09T09:53:39;21.90;99.90
5304;DHT22;2674;49.722;10.892;2022-09-09T09:56:10;22.00;99.90
5304;DHT22;2674;49.722;10.892;2022-09-09T10:01:24;21.80;99.90
5304;DHT22;2674;49.722;10.892;2022-09-09T10:04:02;21.80;99.90
5304;DHT22;2674;49.722;10.892;2022-09-09T10:06:32;21.80;99.90
5304;DHT22;2674;49.722;10.892;2022-09-09T10:08:59;21.70;99.90
5304;DHT22;2674;49.722;10.892;2022-09-09T10:11:30;21.80;99.90
5304;DHT22;2674;49.722;10.892;2022-09-09T10:14:04;21.80;99.90
5304;DHT22;2674;49.722;10.892;2022-09-09T10:19:33;21.70;99.90
5304;DHT22;2674;49.722;10.892;2022-09-09T10:22:24;21.70;99.90
5304;DHT22;2674;49.722;10.892;2022-09-09T10:27:54;22.10;99.90
5304;DHT22;2674;49.722;10.892;2022-09-09T10:33:54;22.60;98.90
5304;DHT22;2674;49.722;10.892;2022-09-09T10:36:13;22.70;98.40
5304;DHT22;2674;49.722;10.892;2022-09-09T10:39:03;23.10;98.80
5304;DHT22;2674;49.722;10.892;2022-09-09T10:41:55;23.30;97.90
5304;DHT22;2674;49.722;10.892;2022-09-09T10:53:18;22.80;96.40
5304;DHT22;2674;49.722;10.892;2022-09-09T10:56:11;22.70;96.60
5304;DHT22;2674;49.722;10.892;2022-09-09T10:58:46;22.80;97.30
5304;DHT22;2674;49.722;10.892;2022-09-09T11:01:48;22.90;97.50
5304;DHT22;2674;49.722;10.892;2022-09-09T11:04:34;22.80;97.10
5304;DHT22;2674;49.722;10.892;2022-09-09T11:07:06;22.70;97.30
5304;DHT22;2674;49.722;10.892;2022-09-09T11:09:39;22.70;97.50
5304;DHT22;2674;49.722;10.892;2022-09-09T11:12:10;22.60;98.10
5304;DHT22;2674;49.722;10.892;2022-09-09T11:14:41;22.80;98.60
5304;DHT22;2674;49.722;10.892;2022-09-09T11:17:48;23.10;96.30
5304;DHT22;2674;49.722;10.892;2022-09-09T11:20:15;23.30;96.00
5304;DHT22;2674;49.722;10.892;2022-09-09T11:23:14;23.20;95.80
5304;DHT22;2674;49.722;10.892;2022-09-09T11:25:52;23.10;96.40
5304;DHT22;2674;49.722;10.892;2022-09-09T11:37:01;22.50;96.90
5304;DHT22;2674;49.722;10.892;2022-09-09T11:42:25;22.40;98.90
5304;DHT22;2674;49.722;10.892;2022-09-09T11:44:51;22.30;97.60
5304;DHT22;2674;49.722;10.892;2022-09-09T11:47:28;22.30;98.30
5304;DHT22;2674;49.722;10.892;2022-09-09T11:50:56;22.40;97.80
5304;DHT22;2674;49.722;10.892;2022-09-09T11:55:39;22.60;96.70
5304;DHT22;2674;49.722;10.892;2022-09-09T11:58:15;22.60;96.00
5304;DHT22;2674;49.722;10.892;2022-09-09T12:00:47;22.70;95.80
5304;DHT22;2674;49.722;10.892;2022-09-09T12:03:54;22.80;95.90
5304;DHT22;2674;49.722;10.892;2022-09-09T12:06:31;23.00;94.90
5304;DHT22;2674;49.722;10.892;2022-09-09T12:09:18;23.30;92.00
5304;DHT22;2674;49.722;10.892;2022-09-09T12:11:46;23.60;90.00
5304;DHT22;2674;49.722;10.892;2022-09-09T12:19:42;23.20;89.30
5304;DHT22;2674;49.722;10.892;2022-09-09T12:22:50;22.50;91.00
5304;DHT22;2674;49.722;10.892;2022-09-09T12:28:05;21.20;93.10
5304;DHT22;2674;49.722;10.892;2022-09-09T12:30:57;20.90;93.40
5304;DHT22;2674;49.722;10.892;2022-09-09T12:33:24;20.60;94.00
5304;DHT22;2674;49.722;10.892;2022-09-09T12:35:56;20.40;95.40
5304;DHT22;2674;49.722;10.892;2022-09-09T12:38:37;20.30;96.90
5304;DHT22;2674;49.722;10.892;2022-09-09T12:41:04;20.00;98.10
5304;DHT22;2674;49.722;10.892;2022-09-09T12:43:30;19.90;98.80
5304;DHT22;2674;49.722;10.892;2022-09-09T12:46:02;19.80;99.70
5304;DHT22;2674;49.722;10.892;2022-09-09T12:48:40;19.70;99.90
5304;DHT22;2674;49.722;10.892;2022-09-09T12:51:18;19.50;99.90
5304;DHT22;2674;49.722;10.892;2022-09-09T12:53:45;19.20;99.90
5304;DHT22;2674;49.722;10.892;2022-09-09T12:56:20;19.10;99.90
5304;DHT22;2674;49.722;10.892;2022-09-09T12:58:48;19.00;99.90
5304;DHT22;2674;49.722;10.892;2022-09-09T13:01:33;18.90;99.90
5304;DHT22;2674;49.722;10.892;2022-09-09T13:03:59;18.90;99.90
5304;DHT22;2674;49.722;10.892;2022-09-09T13:06:30;19.10;99.90
5304;DHT22;2674;49.722;10.892;2022-09-09T13:08:59;19.30;99.90
5304;DHT22;2674;49.722;10.892;2022-09-09T13:11:30;19.50;99.90
5304;DHT22;2674;49.722;10.892;2022-09-09T13:14:01;19.80;99.90
5304;DHT22;2674;49.722;10.892;2022-09-09T13:16:29;20.20;99.90
5304;DHT22;2674;49.722;10.892;2022-09-09T13:19:09;20.60;99.90
5304;DHT22;2674;49.722;10.892;2022-09-09T13:21:37;20.90;99.90
5304;DHT22;2674;49.722;10.892;2022-09-09T13:24:05;21.20;99.90
5304;DHT22;2674;49.722;10.892;2022-09-09T13:26:34;21.30;99.90
5304;DHT22;2674;49.722;10.892;2022-09-09T13:29:19;21.50;99.90
5304;DHT22;2674;49.722;10.892;2022-09-09T13:31:45;21.60;99.90
5304;DHT22;2674;49.722;10.892;2022-09-09T13:34:32;21.80;99.90
5304;DHT22;2674;49.722;10.892;2022-09-09T13:37:01;21.90;99.90
5304;DHT22;2674;49.722;10.892;2022-09-09T13:39:28;22.00;99.90
5304;DHT22;2674;49.722;10.892;2022-09-09T13:41:54;22.20;99.90
5304;DHT22;2674;49.722;10.892;2022-09-09T13:44:34;22.30;98.60
5304;DHT22;2674;49.722;10.892;2022-09-09T13:47:04;22.50;98.70
5304;DHT22;2674;49.722;10.892;2022-09-09T13:49:30;22.60;98.70
5304;DHT22;2674;49.722;10.892;2022-09-09T13:52:15;22.70;98.20
5304;DHT22;2674;49.722;10.892;2022-09-09T13:54:43;22.70;98.40
5304;DHT22;2674;49.722;10.892;2022-09-09T13:57:19;22.80;97.20
5304;DHT22;2674;49.722;10.892;2022-09-09T13:59:46;22.90;96.90
5304;DHT22;2674;49.722;10.892;2022-09-09T14:02:13;23.10;96.00
5304;DHT22;2674;49.722;10.892;2022-09-09T14:04:39;23.20;95.40
5304;DHT22;2674;49.722;10.892;2022-09-09T14:07:13;23.30;95.80
5304;DHT22;2674;49.722;10.892;2022-09-09T14:09:40;23.30;95.50
5304;DHT22;2674;49.722;10.892;2022-09-09T14:12:12;23.40;95.00
5304;DHT22;2674;49.722;10.892;2022-09-09T14:14:39;23.40;94.50
5304;DHT22;2674;49.722;10.892;2022-09-09T14:17:05;23.40;94.80
5304;DHT22;2674;49.722;10.892;2022-09-09T14:19:32;23.60;94.50
5304;DHT22;2674;49.722;10.892;2022-09-09T14:21:58;23.60;93.60
5304;DHT22;2674;49.722;10.892;2022-09-09T14:24:24;23.60;94.20
5304;DHT22;2674;49.722;10.892;2022-09-09T14:26:50;23.50;94.00
5304;DHT22;2674;49.722;10.892;2022-09-09T14:29:16;23.40;93.50
5304;DHT22;2674;49.722;10.892;2022-09-09T14:31:42;23.30;93.90
5304;DHT22;2674;49.722;10.892;2022-09-09T14:34:08;23.00;94.30
5304;DHT22;2674;49.722;10.892;2022-09-09T14:36:37;23.00;93.80
5304;DHT22;2674;49.722;10.892;2022-09-09T14:39:03;22.90;93.50
5304;DHT22;2674;49.722;10.892;2022-09-09T14:41:30;22.80;94.10
5304;DHT22;2674;49.722;10.892;2022-09-09T14:43:56;23.00;93.40
5304;DHT22;2674;49.722;10.892;2022-09-09T14:46:23;23.30;92.50
5304;DHT22;2674;49.722;10.892;2022-09-09T14:48:49;23.40;90.50
5304;DHT22;2674;49.722;10.892;2022-09-09T14:51:23;23.30;90.80
5304;DHT22;2674;49.722;10.892;2022-09-09T14:53:55;23.10;90.00
5304;DHT22;2674;49.722;10.892;2022-09-09T14:56:24;22.90;90.90
5304;DHT22;2674;49.722;10.892;2022-09-09T14:58:52;22.80;91.00
5304;DHT22;2674;49.722;10.892;2022-09-09T15:01:19;22.60;91.50
5304;DHT22;2674;49.722;10.892;2022-09-09T15:03:54;22.50;91.40
5304;DHT22;2674;49.722;10.892;2022-09-09T15:06:21;22.30;91.90
5304;DHT22;2674;49.722;10.892;2022-09-09T15:08:48;22.30;92.10
5304;DHT22;2674;49.722;10.892;2022-09-09T15:11:15;22.10;91.70
5304;DHT22;2674;49.722;10.892;2022-09-09T15:13:43;22.00;90.80
5304;DHT22;2674;49.722;10.892;2022-09-09T15:16:14;21.80;91.00
5304;DHT22;2674;49.722;10.892;2022-09-09T15:18:41;21.70;91.00
5304;DHT22;2674;49.722;10.892;2022-09-09T15:21:16;21.60;91.40
5304;DHT22;2674;49.722;10.892;2022-09-09T15:23:42;21.50;91.90
5304;DHT22;2674;49.722;10.892;2022-09-09T15:26:09;21.40;92.80
5304;DHT22;2674;49.722;10.892;2022-09-09T15:28:37;21.40;92.80
5304;DHT22;2674;49.722;10.892;2022-09-09T15:31:12;21.40;93.20
5304;DHT22;2674;49.722;10.892;2022-09-09T15:33:40;21.30;92.90
5304;DHT22;2674;49.722;10.892;2022-09-09T15:36:34;21.30;93.10
5304;DHT22;2674;49.722;10.892;2022-09-09T15:39:00;21.30;94.00
5304;DHT22;2674;49.722;10.892;2022-09-09T15:41:28;21.30;94.50
5304;DHT22;2674;49.722;10.892;2022-09-09T15:43:56;21.30;94.70
5304;DHT22;2674;49.722;10.892;2022-09-09T15:51:31;21.30;95.50
5304;DHT22;2674;49.722;10.892;2022-09-09T15:53:58;21.40;96.40
5304;DHT22;2674;49.722;10.892;2022-09-09T15:56:25;21.60;96.30
5304;DHT22;2674;49.722;10.892;2022-09-09T15:58:54;21.50;95.40
5304;DHT22;2674;49.722;10.892;2022-09-09T16:01:20;21.80;95.60
5304;DHT22;2674;49.722;10.892;2022-09-09T16:03:46;21.90;95.10
5304;DHT22;2674;49.722;10.892;2022-09-09T16:06:17;22.00;94.10
5304;DHT22;2674;49.722;10.892;2022-09-09T16:08:44;22.20;93.10
5304;DHT22;2674;49.722;10.892;2022-09-09T16:11:23;22.40;92.80
5304;DHT22;2674;49.722;10.892;2022-09-09T16:13:51;22.50;92.30
5304;DHT22;2674;49.722;10.892;2022-09-09T16:16:20;22.60;92.00
5304;DHT22;2674;49.722;10.892;2022-09-09T16:18:49;22.50;92.70
5304;DHT22;2674;49.722;10.892;2022-09-09T16:21:23;22.60;93.10
5304;DHT22;2674;49.722;10.892;2022-09-09T16:23:50;22.50;91.40
5304;DHT22;2674;49.722;10.892;2022-09-09T16:26:17;22.50;91.20
5304;DHT22;2674;49.722;10.892;2022-09-09T16:28:44;22.60;91.60
5304;DHT22;2674;49.722;10.892;2022-09-09T16:31:15;22.50;91.80
5304;DHT22;2674;49.722;10.892;2022-09-09T16:33:42;22.40;91.50
5304;DHT22;2674;49.722;10.892;2022-09-09T16:36:09;22.40;90.90
5304;DHT22;2674;49.722;10.892;2022-09-09T16:38:36;22.30;91.50
5304;DHT22;2674;49.722;10.892;2022-09-09T16:41:03;22.40;92.00
5304;DHT22;2674;49.722;10.892;2022-09-09T16:43:34;22.30;91.60
5304;DHT22;2674;49.722;10.892;2022-09-09T16:46:02;22.10;91.80
5304;DHT22;2674;49.722;10.892;2022-09-09T16:48:32;22.00;92.30
5304;DHT22;2674;49.722;10.892;2022-09-09T16:51:07;21.90;92.20
5304;DHT22;2674;49.722;10.892;2022-09-09T16:53:34;21.80;92.60
5304;DHT22;2674;49.722;10.892;2022-09-09T16:56:07;21.70;92.20
5304;DHT22;2674;49.722;10.892;2022-09-09T16:58:33;21.50;92.50
5304;DHT22;2674;49.722;10.892;2022-09-09T17:01:00;21.40;93.20
5304;DHT22;2674;49.722;10.892;2022-09-09T17:03:27;21.10;93.50
5304;DHT22;2674;49.722;10.892;2022-09-09T17:05:53;21.00;94.10
5304;DHT22;2674;49.722;10.892;2022-09-09T17:08:19;20.80;94.30
5304;DHT22;2674;49.722;10.892;2022-09-09T17:10:45;20.60;94.50
5304;DHT22;2674;49.722;10.892;2022-09-09T17:13:11;20.50;94.60
5304;DHT22;2674;49.722;10.892;2022-09-09T17:15:42;20.30;95.10
5304;DHT22;2674;49.722;10.892;2022-09-09T17:18:10;20.20;94.80
5304;DHT22;2674;49.722;10.892;2022-09-09T17:20:40;20.00;95.40
5304;DHT22;2674;49.722;10.892;2022-09-09T17:23:07;19.90;95.50
5304;DHT22;2674;49.722;10.892;2022-09-09T17:25:34;19.80;95.30
5304;DHT22;2674;49.722;10.892;2022-09-09T17:28:00;19.70;95.00
5304;DHT22;2674;49.722;10.892;2022-09-09T17:30:28;19.60;94.90
5304;DHT22;2674;49.722;10.892;2022-09-09T17:32:55;19.60;94.90
5304;DHT22;2674;49.722;10.892;2022-09-09T17:35:21;19.50;95.00
5304;DHT22;2674;49.722;10.892;2022-09-09T17:37:47;19.50;94.90
5304;DHT22;2674;49.722;10.892;2022-09-09T17:40:13;19.40;94.80
5304;DHT22;2674;49.722;10.892;2022-09-09T17:42:39;19.40;94.70
5304;DHT22;2674;49.722;10.892;2022-09-09T17:45:06;19.30;95.00
5304;DHT22;2674;49.722;10.892;2022-09-09T17:47:32;19.30;95.00
5304;DHT22;2674;49.722;10.892;2022-09-09T17:49:58;19.20;95.10
5304;DHT22;2674;49.722;10.892;2022-09-09T17:52:24;19.20;95.00
5304;DHT22;2674;49.722;10.892;2022-09-09T17:54:50;19.10;95.40
5304;DHT22;2674;49.722;10.892;2022-09-09T17:57:16;19.10;95.40